createdAt,value
2022-10-13T00:00:50.293Z,7.75
2022-10-13T00:03:18.119Z,4.62
2022-10-13T00:05:47.476Z,5.94
2022-10-13T00:08:17.337Z,7.80
2022-10-13T00:10:44.579Z,7.21
2022-10-13T00:13:12.316Z,6.93
2022-10-13T00:15:44.757Z,6.12
2022-10-13T00:18:12.136Z,6.21
2022-10-13T00:20:48.774Z,7.48
2022-10-13T00:23:16.758Z,7.74
2022-10-13T00:25:48.792Z,7.24
2022-10-13T00:28:18.690Z,5.95
2022-10-13T00:30:46.843Z,5.93
2022-10-13T00:33:14.363Z,7.20
2022-10-13T00:35:46.336Z,7.32
2022-10-13T00:38:13.739Z,6.27
2022-10-13T00:40:55.660Z,7.06
2022-10-13T00:43:46.976Z,7.33
2022-10-13T00:46:14.975Z,6.02
2022-10-13T00:48:43.285Z,7.17
2022-10-13T00:51:12.148Z,7.43
2022-10-13T00:53:40.936Z,6.25
2022-10-13T00:56:11.419Z,5.72
2022-10-13T00:58:40.616Z,5.26
2022-10-13T01:01:08.322Z,5.91
2022-10-13T01:03:36.167Z,7.43
2022-10-13T01:06:05.195Z,7.44
2022-10-13T01:08:33.501Z,7.53
2022-10-13T01:11:09.152Z,6.21
2022-10-13T01:13:46.484Z,7.31
2022-10-13T01:16:22.296Z,7.48
2022-10-13T01:18:52.532Z,6.90
2022-10-13T01:21:31.933Z,5.89
2022-10-13T01:24:02.120Z,7.21
2022-10-13T01:26:40.751Z,7.24
2022-10-13T01:29:16.549Z,7.18
2022-10-13T01:32:18.292Z,5.81
2022-10-13T01:35:12.050Z,6.75
2022-10-13T01:37:47.988Z,6.93
2022-10-13T01:40:39.100Z,5.52
2022-10-13T01:43:14.408Z,6.95
2022-10-13T01:46:07.752Z,6.90
2022-10-13T01:48:38.088Z,6.94
2022-10-13T01:51:09.189Z,7.07
2022-10-13T01:53:36.900Z,7.08
2022-10-13T01:56:03.898Z,5.56
2022-10-13T01:58:34.534Z,5.93
2022-10-13T02:01:20.011Z,6.76
2022-10-13T02:04:24.589Z,6.84
2022-10-13T02:07:03.940Z,6.83
2022-10-13T02:09:43.815Z,5.98
2022-10-13T02:12:19.408Z,6.86
2022-10-13T02:14:49.320Z,5.74
2022-10-13T02:17:17.238Z,6.53
2022-10-13T02:19:45.355Z,6.45
2022-10-13T02:22:15.293Z,5.31
2022-10-13T02:24:42.396Z,6.34
2022-10-13T02:27:09.535Z,6.84
2022-10-13T02:29:53.686Z,7.03
2022-10-13T02:32:21.612Z,5.14
2022-10-13T02:34:49.736Z,5.89
2022-10-13T02:37:17.291Z,5.70
2022-10-13T02:39:44.131Z,4.76
2022-10-13T02:42:11.080Z,6.57
2022-10-13T02:44:38.117Z,6.22
2022-10-13T02:47:05.237Z,6.52
2022-10-13T02:49:32.178Z,5.78
2022-10-13T02:51:59.430Z,5.88
2022-10-13T02:54:26.197Z,5.53
2022-10-13T02:56:52.997Z,6.28
2022-10-13T02:59:20.277Z,7.08
2022-10-13T03:01:47.132Z,6.35
2022-10-13T03:04:13.912Z,6.40
2022-10-13T03:06:40.793Z,6.84
2022-10-13T03:09:07.700Z,6.72
2022-10-13T03:11:34.740Z,5.99
2022-10-13T03:14:02.903Z,4.64
2022-10-13T03:16:29.719Z,4.79
2022-10-13T03:18:56.680Z,5.78
2022-10-13T03:21:23.901Z,5.59
2022-10-13T03:23:50.873Z,3.30
2022-10-13T03:26:17.770Z,6.88
2022-10-13T03:28:49.445Z,6.66
2022-10-13T03:31:17.565Z,6.94
2022-10-13T03:33:45.482Z,6.90
2022-10-13T03:36:13.436Z,5.57
2022-10-13T03:38:40.492Z,5.48
2022-10-13T03:41:09.937Z,6.11
2022-10-13T03:43:37.101Z,4.22
2022-10-13T03:46:05.987Z,3.79
2022-10-13T03:48:34.053Z,6.62
2022-10-13T03:51:04.874Z,6.54
2022-10-13T03:53:31.673Z,6.57
2022-10-13T03:55:58.610Z,4.91
2022-10-13T03:58:25.994Z,4.16
2022-10-13T04:00:52.859Z,4.91
2022-10-13T04:03:20.062Z,6.29
2022-10-13T04:05:47.679Z,5.33
2022-10-13T04:08:14.835Z,4.96
2022-10-13T04:10:42.406Z,4.99
2022-10-13T04:13:09.483Z,5.26
2022-10-13T04:15:38.229Z,6.20
2022-10-13T04:18:07.296Z,6.54
2022-10-13T04:20:40.771Z,5.00
2022-10-13T04:23:07.914Z,5.63
2022-10-13T04:25:36.355Z,3.24
2022-10-13T04:28:05.578Z,6.75
2022-10-13T04:30:38.001Z,6.79
2022-10-13T04:33:05.795Z,6.76
2022-10-13T04:35:33.329Z,5.81
2022-10-13T04:38:00.380Z,3.72
2022-10-13T04:40:27.400Z,6.95
2022-10-13T04:42:54.598Z,6.14
2022-10-13T04:45:21.697Z,5.86
2022-10-13T04:47:49.016Z,6.37
2022-10-13T04:50:16.056Z,6.21
2022-10-13T04:52:42.917Z,6.52
2022-10-13T04:55:10.012Z,5.67
2022-10-13T04:57:37.233Z,7.46
2022-10-13T05:00:05.437Z,7.14
2022-10-13T05:02:32.275Z,6.13
2022-10-13T05:04:59.192Z,6.55
2022-10-13T05:07:25.947Z,6.60
2022-10-13T05:09:53.055Z,6.04
2022-10-13T05:12:20.371Z,6.64
2022-10-13T05:14:47.592Z,6.45
2022-10-13T05:17:14.596Z,7.29
2022-10-13T05:19:41.677Z,7.22
2022-10-13T05:22:08.373Z,6.88
2022-10-13T05:24:35.469Z,7.18
2022-10-13T05:27:09.121Z,7.48
2022-10-13T05:29:37.290Z,7.67
2022-10-13T05:32:04.457Z,6.36
2022-10-13T05:34:31.875Z,6.74
2022-10-13T05:36:59.678Z,7.61
2022-10-13T05:39:26.575Z,7.56
2022-10-13T05:41:53.518Z,7.80
2022-10-13T05:44:21.215Z,7.83
2022-10-13T05:46:48.007Z,6.95
2022-10-13T05:49:14.937Z,7.02
2022-10-13T05:51:45.379Z,7.75
2022-10-13T05:54:21.518Z,8.09
2022-10-13T05:56:55.584Z,8.08
2022-10-13T05:59:27.156Z,6.99
2022-10-13T06:01:55.134Z,8.01
2022-10-13T06:04:32.137Z,7.62
2022-10-13T06:06:59.117Z,7.37
2022-10-13T06:09:32.580Z,8.00
2022-10-13T06:11:59.621Z,5.41
2022-10-13T06:14:26.445Z,7.01
2022-10-13T06:16:53.259Z,7.96
2022-10-13T06:19:20.357Z,8.38
2022-10-13T06:21:47.488Z,7.21
2022-10-13T06:24:14.290Z,7.30
2022-10-13T06:26:41.395Z,7.48
2022-10-13T06:29:08.269Z,6.68
2022-10-13T06:31:35.353Z,7.66
2022-10-13T06:34:02.511Z,7.82
2022-10-13T06:36:29.311Z,7.82
2022-10-13T06:38:56.399Z,7.81
2022-10-13T06:41:23.376Z,8.96
2022-10-13T06:43:50.296Z,8.83
2022-10-13T06:46:17.442Z,7.97
2022-10-13T06:48:44.744Z,8.96
2022-10-13T06:51:12.518Z,9.57
2022-10-13T06:53:39.473Z,8.69
2022-10-13T06:56:07.681Z,9.98
2022-10-13T06:58:35.857Z,9.99
2022-10-13T07:01:03.157Z,9.90
2022-10-13T07:03:30.149Z,9.69
2022-10-13T07:06:04.958Z,10.62
2022-10-13T07:08:34.847Z,10.70
2022-10-13T07:11:14.546Z,9.84
2022-10-13T07:13:46.193Z,10.92
2022-10-13T07:16:14.912Z,10.24
2022-10-13T07:18:41.977Z,11.16
2022-10-13T07:21:09.777Z,10.97
2022-10-13T07:23:36.756Z,11.11
2022-10-13T07:26:11.255Z,11.88
2022-10-13T07:28:39.112Z,10.91
2022-10-13T07:31:11.372Z,10.98
2022-10-13T07:33:38.954Z,12.78
2022-10-13T07:36:06.275Z,12.10
2022-10-13T07:38:33.246Z,11.97
2022-10-13T07:41:05.238Z,11.43
2022-10-13T07:43:32.286Z,12.46
2022-10-13T07:45:59.914Z,12.89
2022-10-13T07:48:27.496Z,10.84
2022-10-13T07:50:54.490Z,12.08
2022-10-13T07:53:21.503Z,14.56
2022-10-13T07:55:48.978Z,13.33
2022-10-13T07:58:16.044Z,12.61
2022-10-13T08:00:42.969Z,12.61
2022-10-13T08:03:10.322Z,13.99
2022-10-13T08:05:37.885Z,14.30
2022-10-13T08:08:04.834Z,14.54
2022-10-13T08:10:31.965Z,14.99
2022-10-13T08:12:58.852Z,13.87
2022-10-13T08:15:26.753Z,14.74
2022-10-13T08:17:53.871Z,14.55
2022-10-13T08:20:20.798Z,15.41
2022-10-13T08:22:47.655Z,14.64
2022-10-13T08:25:14.589Z,15.03
2022-10-13T08:27:51.132Z,14.32
2022-10-13T08:30:19.887Z,16.23
2022-10-13T08:32:46.954Z,15.79
2022-10-13T08:35:13.828Z,14.12
2022-10-13T08:37:41.012Z,13.46
2022-10-13T08:40:12.098Z,12.81
2022-10-13T08:42:44.322Z,14.87
2022-10-13T08:45:40.488Z,16.23
2022-10-13T08:48:22.021Z,17.26
2022-10-13T08:50:57.805Z,17.43
2022-10-13T08:53:43.833Z,17.40
2022-10-13T08:56:30.759Z,17.51
2022-10-13T08:58:57.914Z,18.12
2022-10-13T09:01:33.709Z,18.43
2022-10-13T09:04:32.840Z,18.59
2022-10-13T09:07:07.317Z,17.93
2022-10-13T09:09:34.435Z,17.75
2022-10-13T09:12:02.073Z,18.54
2022-10-13T09:14:32.428Z,18.23
2022-10-13T09:17:23.390Z,18.69
2022-10-13T09:20:04.515Z,18.81
2022-10-13T09:22:34.716Z,18.71
2022-10-13T09:25:07.098Z,18.65
2022-10-13T09:27:53.934Z,17.41
2022-10-13T09:30:38.658Z,18.22
2022-10-13T09:33:08.686Z,18.93
2022-10-13T09:35:37.641Z,19.32
2022-10-13T09:38:21.079Z,18.63
2022-10-13T09:41:02.573Z,18.06
2022-10-13T09:43:35.399Z,18.89
2022-10-13T09:46:11.536Z,18.65
2022-10-13T09:48:40.713Z,19.13
2022-10-13T09:51:27.491Z,17.65
2022-10-13T09:53:54.421Z,19.63
2022-10-13T09:56:37.197Z,19.34
2022-10-13T09:59:25.112Z,19.37
2022-10-13T10:01:55.911Z,20.20
2022-10-13T10:04:26.263Z,19.56
2022-10-13T10:06:53.109Z,20.27
2022-10-13T10:09:22.631Z,20.69
2022-10-13T10:11:53.174Z,19.57
2022-10-13T10:14:34.706Z,20.04
2022-10-13T10:17:26.199Z,20.55
2022-10-13T10:20:10.812Z,21.53
2022-10-13T10:23:05.259Z,21.88
2022-10-13T10:25:45.902Z,21.78
2022-10-13T10:28:34.005Z,21.45
2022-10-13T10:31:06.752Z,21.55
2022-10-13T10:33:55.117Z,22.12
2022-10-13T10:36:39.536Z,21.12
2022-10-13T10:39:32.632Z,21.71
2022-10-13T10:42:25.468Z,21.32
2022-10-13T10:44:56.485Z,19.95
2022-10-13T10:47:43.526Z,20.42
2022-10-13T10:50:15.453Z,21.93
2022-10-13T10:53:07.308Z,21.40
2022-10-13T10:55:39.984Z,21.83
2022-10-13T10:58:25.123Z,21.52
2022-10-13T11:00:56.056Z,21.46
2022-10-13T11:03:40.618Z,21.47
2022-10-13T11:06:13.274Z,21.49
2022-10-13T11:08:45.816Z,21.54
2022-10-13T11:11:26.789Z,21.06
2022-10-13T11:14:07.466Z,21.23
2022-10-13T11:16:55.954Z,20.42
2022-10-13T11:19:36.001Z,20.64
2022-10-13T11:22:02.790Z,21.82
2022-10-13T11:24:42.130Z,21.53
2022-10-13T11:27:08.989Z,21.03
2022-10-13T11:29:45.056Z,21.38
2022-10-13T11:32:44.459Z,21.45
2022-10-13T11:35:11.113Z,21.42
2022-10-13T11:38:06.114Z,21.84
2022-10-13T11:40:42.150Z,21.58
2022-10-13T11:43:17.973Z,21.66
2022-10-13T11:46:01.915Z,21.42
2022-10-13T11:48:47.275Z,22.98
2022-10-13T11:51:48.871Z,23.11
2022-10-13T11:54:47.536Z,23.46
2022-10-13T11:57:26.127Z,23.57
2022-10-13T11:59:55.676Z,23.49
2022-10-13T12:02:25.925Z,22.66
2022-10-13T12:05:24.097Z,22.95
2022-10-13T12:07:57.202Z,22.78
2022-10-13T12:10:35.876Z,22.51
2022-10-13T12:13:03.873Z,22.27
2022-10-13T12:15:35.435Z,21.43
2022-10-13T12:18:04.058Z,20.32
2022-10-13T12:20:33.131Z,22.58
2022-10-13T12:23:00.316Z,22.85
2022-10-13T12:25:30.331Z,22.17
2022-10-13T12:28:00.568Z,22.64
2022-10-13T12:30:34.819Z,21.79
2022-10-13T12:33:01.997Z,21.52
2022-10-13T12:35:31.689Z,20.94
2022-10-13T12:38:02.378Z,20.55
2022-10-13T12:40:30.155Z,21.20
2022-10-13T12:42:57.479Z,21.01
2022-10-13T12:45:31.783Z,19.85
2022-10-13T12:47:58.893Z,20.43
2022-10-13T12:50:25.673Z,21.29
2022-10-13T12:52:55.438Z,19.06
2022-10-13T12:55:23.458Z,20.28
2022-10-13T12:57:51.694Z,20.44
2022-10-13T13:00:22.492Z,20.72
2022-10-13T13:03:06.269Z,20.74
2022-10-13T13:05:34.390Z,21.09
2022-10-13T13:08:02.273Z,20.83
2022-10-13T13:10:29.514Z,19.01
2022-10-13T13:12:57.079Z,20.54
2022-10-13T13:15:37.998Z,19.95
2022-10-13T13:18:31.283Z,21.24
2022-10-13T13:20:58.654Z,20.28
2022-10-13T13:23:25.443Z,20.37
2022-10-13T13:26:24.808Z,20.87
2022-10-13T13:28:54.199Z,20.25
2022-10-13T13:31:23.716Z,21.23
2022-10-13T13:33:51.234Z,20.19
2022-10-13T13:36:19.382Z,20.99
2022-10-13T13:38:46.613Z,19.89
2022-10-13T13:41:14.127Z,20.17
2022-10-13T13:43:41.645Z,19.63
2022-10-13T13:46:16.237Z,20.32
2022-10-13T13:48:43.150Z,19.23
2022-10-13T13:51:10.971Z,20.20
2022-10-13T13:53:37.988Z,19.70
2022-10-13T13:56:05.528Z,19.72
2022-10-13T13:58:32.469Z,20.07
2022-10-13T14:01:00.365Z,19.94
2022-10-13T14:03:27.317Z,19.94
2022-10-13T14:05:54.088Z,19.08
2022-10-13T14:08:21.221Z,18.99
2022-10-13T14:10:48.128Z,19.61
2022-10-13T14:13:15.038Z,19.82
2022-10-13T14:15:42.119Z,19.48
2022-10-13T14:18:08.962Z,18.76
2022-10-13T14:20:35.777Z,18.07
2022-10-13T14:23:02.995Z,18.41
2022-10-13T14:25:29.759Z,17.86
2022-10-13T14:27:56.496Z,18.99
2022-10-13T14:30:23.925Z,18.98
2022-10-13T14:32:50.716Z,18.87
2022-10-13T14:35:17.736Z,17.41
2022-10-13T14:37:44.926Z,18.69
2022-10-13T14:40:11.800Z,17.56
2022-10-13T14:42:38.592Z,18.44
2022-10-13T14:45:06.441Z,17.65
2022-10-13T14:47:33.314Z,18.25
2022-10-13T14:50:00.243Z,17.11
2022-10-13T14:52:27.114Z,17.34
2022-10-13T14:54:54.012Z,18.03
2022-10-13T14:57:21.097Z,16.98
2022-10-13T14:59:48.402Z,17.65
2022-10-13T15:02:15.658Z,15.87
2022-10-13T15:04:42.470Z,17.75
2022-10-13T15:07:09.550Z,17.03
2022-10-13T15:09:53.208Z,17.11
2022-10-13T15:12:23.826Z,16.98
2022-10-13T15:14:50.897Z,16.72
2022-10-13T15:17:17.813Z,16.39
2022-10-13T15:19:44.816Z,16.41
2022-10-13T15:22:11.645Z,17.40
2022-10-13T15:24:38.441Z,16.62
2022-10-13T15:27:07.561Z,17.33
2022-10-13T15:29:34.535Z,17.22
2022-10-13T15:32:11.514Z,17.39
2022-10-13T15:34:41.447Z,16.33
2022-10-13T15:37:14.248Z,16.33
2022-10-13T15:39:41.097Z,15.87
2022-10-13T15:42:08.017Z,15.13
2022-10-13T15:44:57.330Z,14.53
2022-10-13T15:47:21.892Z,17.07
2022-10-13T15:49:49.093Z,17.05
2022-10-13T15:52:16.001Z,16.27
2022-10-13T15:54:43.117Z,16.87
2022-10-13T15:57:09.995Z,16.12
2022-10-13T15:59:36.817Z,16.35
2022-10-13T16:02:03.735Z,15.88
2022-10-13T16:04:34.803Z,15.69
2022-10-13T16:07:04.778Z,16.49
2022-10-13T16:09:31.922Z,16.75
2022-10-13T16:11:59.017Z,16.21
2022-10-13T16:14:26.068Z,16.71
2022-10-13T16:16:52.914Z,16.71
2022-10-13T16:19:20.008Z,15.84
2022-10-13T16:21:47.471Z,16.63
2022-10-13T16:24:14.394Z,15.46
2022-10-13T16:26:41.258Z,15.52
2022-10-13T16:29:08.415Z,16.49
2022-10-13T16:31:35.450Z,15.24
2022-10-13T16:34:02.749Z,16.42
2022-10-13T16:36:39.096Z,15.72
2022-10-13T16:39:05.990Z,16.43
2022-10-13T16:41:32.963Z,15.99
2022-10-13T16:44:00.117Z,15.31
2022-10-13T16:46:28.180Z,14.33
2022-10-13T16:48:55.355Z,14.48
2022-10-13T16:51:24.867Z,14.16
2022-10-13T16:53:54.114Z,15.80
2022-10-13T16:56:22.443Z,15.54
2022-10-13T16:58:51.396Z,15.38
2022-10-13T17:01:18.445Z,15.31
2022-10-13T17:03:46.440Z,16.41
2022-10-13T17:06:14.641Z,15.16
2022-10-13T17:08:42.538Z,16.12
2022-10-13T17:11:15.440Z,16.33
2022-10-13T17:13:42.873Z,15.21
2022-10-13T17:16:12.657Z,15.38
2022-10-13T17:18:39.937Z,16.43
2022-10-13T17:21:10.060Z,15.27
2022-10-13T17:23:37.918Z,15.32
2022-10-13T17:26:11.114Z,14.94
2022-10-13T17:28:39.228Z,15.95
2022-10-13T17:31:12.027Z,15.79
2022-10-13T17:33:40.377Z,14.21
2022-10-13T17:36:19.228Z,14.60
2022-10-13T17:38:46.899Z,15.76
2022-10-13T17:41:14.464Z,14.82
2022-10-13T17:43:42.312Z,15.61
2022-10-13T17:46:42.599Z,15.31
2022-10-13T17:49:12.201Z,14.33
2022-10-13T17:51:40.728Z,13.93
2022-10-13T17:54:11.592Z,15.52
2022-10-13T17:56:42.177Z,14.39
2022-10-13T17:59:09.086Z,14.11
2022-10-13T18:01:36.307Z,15.43
2022-10-13T18:04:06.656Z,15.49
2022-10-13T18:06:38.632Z,15.50
2022-10-13T18:09:18.393Z,15.41
2022-10-13T18:11:50.721Z,15.26
2022-10-13T18:14:20.270Z,15.20
2022-10-13T18:16:47.589Z,14.24
2022-10-13T18:19:15.164Z,14.05
2022-10-13T18:21:42.292Z,14.89
2022-10-13T18:24:10.658Z,15.16
2022-10-13T18:26:37.758Z,15.03
2022-10-13T18:29:07.329Z,13.80
2022-10-13T18:31:37.059Z,14.99
2022-10-13T18:34:08.197Z,13.42
2022-10-13T18:36:38.359Z,14.61
2022-10-13T18:39:14.293Z,14.73
2022-10-13T18:41:42.258Z,14.64
2022-10-13T18:44:10.039Z,13.51
2022-10-13T18:46:38.923Z,14.73
2022-10-13T18:49:07.933Z,13.71
2022-10-13T18:51:36.424Z,14.72
2022-10-13T18:54:05.090Z,13.86
2022-10-13T18:56:33.180Z,14.92
2022-10-13T18:59:02.376Z,14.96
2022-10-13T19:01:32.258Z,14.83
2022-10-13T19:03:59.758Z,13.10
2022-10-13T19:06:28.580Z,13.97
2022-10-13T19:09:01.133Z,14.91
2022-10-13T19:11:29.336Z,14.01
2022-10-13T19:13:57.765Z,12.60
2022-10-13T19:16:27.047Z,10.81
2022-10-13T19:18:54.093Z,14.85
2022-10-13T19:21:22.477Z,14.60
2022-10-13T19:23:49.970Z,14.14
2022-10-13T19:26:19.921Z,14.70
2022-10-13T19:28:47.392Z,13.81
2022-10-13T19:31:17.917Z,14.25
2022-10-13T19:33:45.715Z,14.51
2022-10-13T19:36:24.004Z,13.29
2022-10-13T19:38:51.396Z,12.79
2022-10-13T19:41:18.497Z,14.30
2022-10-13T19:43:45.436Z,12.77
2022-10-13T19:46:12.468Z,13.00
2022-10-13T19:48:39.334Z,13.98
2022-10-13T19:51:08.440Z,13.94
2022-10-13T19:53:36.133Z,13.84
2022-10-13T19:56:03.006Z,12.15
2022-10-13T19:58:30.326Z,12.37
2022-10-13T20:01:02.710Z,12.29
2022-10-13T20:03:29.698Z,13.63
2022-10-13T20:06:09.923Z,9.44
2022-10-13T20:08:42.816Z,8.90
2022-10-13T20:11:12.634Z,11.14
2022-10-13T20:13:39.729Z,10.91
2022-10-13T20:16:08.964Z,13.08
2022-10-13T20:18:39.275Z,12.57
2022-10-13T20:21:09.317Z,12.51
2022-10-13T20:23:36.835Z,13.02
2022-10-13T20:26:09.993Z,13.34
2022-10-13T20:28:42.885Z,13.31
2022-10-13T20:31:11.639Z,13.33
2022-10-13T20:33:39.035Z,11.89
2022-10-13T20:36:08.609Z,13.27
2022-10-13T20:38:36.393Z,13.49
2022-10-13T20:41:05.294Z,12.74
2022-10-13T20:43:32.580Z,12.50
2022-10-13T20:46:05.201Z,13.41
2022-10-13T20:48:45.572Z,12.96
2022-10-13T20:51:24.148Z,13.58
2022-10-13T20:53:51.175Z,11.77
2022-10-13T20:56:21.551Z,13.62
2022-10-13T20:58:49.375Z,13.30
2022-10-13T21:01:17.553Z,12.81
2022-10-13T21:03:44.512Z,12.44
2022-10-13T21:06:13.795Z,12.32
2022-10-13T21:08:44.135Z,13.12
2022-10-13T21:11:13.732Z,13.16
2022-10-13T21:13:42.347Z,13.23
2022-10-13T21:16:21.400Z,12.97
2022-10-13T21:18:50.023Z,13.13
2022-10-13T21:21:23.040Z,13.04
2022-10-13T21:23:53.996Z,12.64
2022-10-13T21:26:22.446Z,12.82
2022-10-13T21:28:50.676Z,12.80
2022-10-13T21:31:19.555Z,12.66
2022-10-13T21:33:46.714Z,11.62
2022-10-13T21:36:20.396Z,12.24
2022-10-13T21:38:50.199Z,11.32
2022-10-13T21:41:19.643Z,11.11
2022-10-13T21:43:47.976Z,10.69
2022-10-13T21:46:20.884Z,11.29
2022-10-13T21:48:48.542Z,10.82
2022-10-13T21:51:21.657Z,12.44
2022-10-13T21:53:54.213Z,11.45
2022-10-13T21:56:22.638Z,11.48
2022-10-13T21:58:50.080Z,11.34
2022-10-13T22:01:18.726Z,12.54
2022-10-13T22:03:47.164Z,12.01
2022-10-13T22:06:19.083Z,12.29
2022-10-13T22:08:49.447Z,11.48
2022-10-13T22:11:18.456Z,12.60
2022-10-13T22:13:46.115Z,11.52
2022-10-13T22:16:18.421Z,12.61
2022-10-13T22:18:47.158Z,12.64
2022-10-13T22:21:17.522Z,11.63
2022-10-13T22:23:46.265Z,11.46
2022-10-13T22:26:15.431Z,12.72
2022-10-13T22:28:42.816Z,12.46
2022-10-13T22:31:12.961Z,12.60
2022-10-13T22:33:41.379Z,12.58
2022-10-13T22:36:19.701Z,11.54
2022-10-13T22:38:49.240Z,12.47
2022-10-13T22:41:18.165Z,12.47
2022-10-13T22:43:49.482Z,11.62
2022-10-13T22:46:18.806Z,11.65
2022-10-13T22:48:46.217Z,12.16
2022-10-13T22:51:16.611Z,11.11
2022-10-13T22:53:44.252Z,12.44
2022-10-13T22:56:17.535Z,11.31
2022-10-13T22:58:48.538Z,11.12
2022-10-13T23:01:16.395Z,12.28
2022-10-13T23:03:46.501Z,12.04
2022-10-13T23:06:15.648Z,12.20
2022-10-13T23:08:42.870Z,12.09
2022-10-13T23:11:10.366Z,10.08
2022-10-13T23:13:37.612Z,12.11
2022-10-13T23:16:11.963Z,11.78
2022-10-13T23:18:39.638Z,10.36
2022-10-13T23:21:13.126Z,11.76
2022-10-13T23:23:40.457Z,10.22
2022-10-13T23:26:13.843Z,12.02
2022-10-13T23:28:41.083Z,11.01
2022-10-13T23:31:14.965Z,10.72
2022-10-13T23:33:42.076Z,10.64
2022-10-13T23:36:11.366Z,11.82
2022-10-13T23:38:38.679Z,10.30
2022-10-13T23:41:10.978Z,11.61
2022-10-13T23:43:38.237Z,10.92
2022-10-13T23:46:05.950Z,11.86
2022-10-13T23:48:33.241Z,11.39
2022-10-13T23:51:10.478Z,11.96
2022-10-13T23:53:38.398Z,11.93
2022-10-13T23:56:06.951Z,11.25
2022-10-13T23:58:36.756Z,11.55
